TimeICT,TemperatureF,Dew PointF,Humidity,Sea Level PressureIn,VisibilityMPH,Wind Direction,Wind SpeedMPH,Gust SpeedMPH,PrecipitationIn,Events,Conditions,WindDirDegrees,DateUTC
12:00 AM,77.0,73.4,89,29.89,3.1,West,8.1,-,N/A,Rain,Light Rain,260,2012-09-10 17:00:00
12:30 AM,77.0,73.4,89,29.89,4.3,WNW,8.1,-,N/A,Rain,Light Rain,290,2012-09-10 17:30:00
1:00 AM,78,75,89,29.83,5,Calm,Calm,,,Rain,Light Rain,,2012-09-10 18:00:00
1:00 AM,77.0,75.2,94,29.89,5.0,Calm,Calm,-,N/A,,Mostly Cloudy,0,2012-09-10 18:00:00
1:30 AM,77.0,75.2,94,29.86,5.0,Calm,Calm,-,N/A,,Mostly Cloudy,0,2012-09-10 18:30:00
2:00 AM,77.0,73.4,89,29.86,5.0,Calm,Calm,-,N/A,,Mostly Cloudy,0,2012-09-10 19:00:00
2:30 AM,77.0,73.4,89,29.86,5.0,Calm,Calm,-,N/A,,Mostly Cloudy,0,2012-09-10 19:30:00
3:00 AM,77.0,73.4,89,29.86,1.9,WNW,19.6,-,N/A,Rain,Rain,290,2012-09-10 20:00:00
3:30 AM,77.0,73.4,89,29.86,1.9,NW,19.6,31.1,N/A,Rain,Rain,310,2012-09-10 20:30:00
4:00 AM,77.0,73.4,89,29.86,1.9,WNW,17.3,-,N/A,Rain,Rain,300,2012-09-10 21:00:00
4:30 AM,77.0,73.4,89,29.86,3.1,WNW,18.4,-,N/A,Rain,Light Rain,290,2012-09-10 21:30:00
5:00 AM,77.0,71.6,83,29.86,3.1,WNW,20.7,-,N/A,Rain,Light Rain,290,2012-09-10 22:00:00
5:30 AM,77.0,71.6,83,29.86,5.0,West,17.3,-,N/A,,Mostly Cloudy,280,2012-09-10 22:30:00
6:00 AM,77.0,71.6,83,29.86,5.0,West,18.4,-,N/A,,Mostly Cloudy,280,2012-09-10 23:00:00
6:30 AM,77.0,71.6,83,29.86,5.0,West,19.6,-,N/A,,Mostly Cloudy,280,2012-09-10 23:30:00
7:00 AM,78,74,84,29.83,6,West,15.0,,,,Mist,270,2012-09-11 00:00:00
7:00 AM,77.0,71.6,83,29.89,5.0,West,15.0,-,N/A,,Mostly Cloudy,270,2012-09-11 00:00:00
7:30 AM,78.8,73.4,83,29.89,5.6,West,13.8,-,N/A,,Mostly Cloudy,280,2012-09-11 00:30:00
8:00 AM,78.8,73.4,83,29.89,5.6,West,13.8,-,N/A,,Mostly Cloudy,270,2012-09-11 01:00:00
8:30 AM,80.6,73.4,79,29.89,5.6,West,13.8,-,N/A,,Mostly Cloudy,280,2012-09-11 01:30:00
9:00 AM,82.4,73.4,74,29.92,5.6,West,15.0,-,N/A,,Mostly Cloudy,280,2012-09-11 02:00:00
9:30 AM,82.4,71.6,70,29.92,5.6,West,16.1,-,N/A,,Mostly Cloudy,270,2012-09-11 02:30:00
10:00 AM,82.4,73.4,74,29.92,5.6,West,15.0,-,N/A,,Mostly Cloudy,270,2012-09-11 03:00:00
10:30 AM,82.4,73.4,74,29.92,5.6,West,11.5,-,N/A,,Mostly Cloudy,260,2012-09-11 03:30:00
11:00 AM,84.2,73.4,70,29.92,5.6,West,16.1,-,N/A,,Mostly Cloudy,270,2012-09-11 04:00:00
11:30 AM,84.2,73.4,70,29.92,5.6,West,15.0,-,N/A,,Mostly Cloudy,260,2012-09-11 04:30:00
12:00 PM,82.4,75.2,79,29.92,5.0,West,13.8,-,N/A,,Mostly Cloudy,260,2012-09-11 05:00:00
12:30 PM,82.4,71.6,70,29.89,5.0,West,17.3,-,N/A,,Mostly Cloudy,260,2012-09-11 05:30:00
1:00 PM,84,74,65,29.86,6,West,16.1,,,,Scattered Clouds,260,2012-09-11 06:00:00
1:00 PM,82.4,73.4,74,29.89,5.0,West,13.8,-,N/A,,Mostly Cloudy,260,2012-09-11 06:00:00
1:30 PM,84.2,73.4,70,29.86,5.6,West,12.7,-,N/A,,Mostly Cloudy,260,2012-09-11 06:30:00
2:00 PM,84.2,71.6,66,29.86,5.6,West,15.0,26.5,N/A,,Mostly Cloudy,260,2012-09-11 07:00:00
2:30 PM,84.2,71.6,66,29.83,5.6,West,15.0,-,N/A,,Mostly Cloudy,260,2012-09-11 07:30:00
3:00 PM,84.2,73.4,70,29.83,5.0,WSW,13.8,-,N/A,,Mostly Cloudy,250,2012-09-11 08:00:00
3:30 PM,84.2,73.4,70,29.80,5.0,West,10.4,-,N/A,,Mostly Cloudy,260,2012-09-11 08:30:00
4:00 PM,84.2,73.4,70,29.80,5.6,WSW,9.2,-,N/A,,Mostly Cloudy,240,2012-09-11 09:00:00
4:30 PM,84.2,73.4,70,29.80,5.6,West,13.8,-,N/A,,Mostly Cloudy,260,2012-09-11 09:30:00
5:00 PM,82.4,73.4,74,29.80,5.6,West,12.7,-,N/A,,Mostly Cloudy,270,2012-09-11 10:00:00
5:30 PM,82.4,73.4,74,29.80,5.6,West,13.8,-,N/A,,Mostly Cloudy,280,2012-09-11 10:30:00
6:00 PM,82.4,73.4,74,29.83,5.6,West,8.1,-,N/A,,Mostly Cloudy,280,2012-09-11 11:00:00
6:30 PM,82.4,71.6,70,29.83,5.6,WSW,9.2,-,N/A,,Mostly Cloudy,250,2012-09-11 11:30:00
7:00 PM,83,78,80,29.79,6,West,6.9,,,,Scattered Clouds,260,2012-09-11 12:00:00
7:00 PM,80.6,73.4,79,29.83,5.6,West,3.5,-,N/A,,Mostly Cloudy,260,2012-09-11 12:00:00
7:30 PM,80.6,73.4,79,29.86,5.6,Variable,4.6,-,N/A,,Mostly Cloudy,0,2012-09-11 12:30:00
8:00 PM,80.6,73.4,79,29.86,5.6,Variable,4.6,-,N/A,,Mostly Cloudy,0,2012-09-11 13:00:00
8:30 PM,80.6,73.4,79,29.89,5.6,Variable,4.6,-,N/A,,Mostly Cloudy,0,2012-09-11 13:30:00
9:00 PM,80.6,71.6,74,29.89,5.6,SW,4.6,-,N/A,,Mostly Cloudy,230,2012-09-11 14:00:00
9:30 PM,80.6,73.4,79,29.92,5.6,WSW,3.5,-,N/A,,Mostly Cloudy,250,2012-09-11 14:30:00
10:00 PM,82.4,73.4,74,29.92,5.6,West,6.9,-,N/A,,Mostly Cloudy,260,2012-09-11 15:00:00
10:30 PM,80.6,73.4,79,29.92,5.6,Variable,5.8,-,N/A,,Mostly Cloudy,0,2012-09-11 15:30:00
11:00 PM,80.6,73.4,79,29.92,5.6,Variable,5.8,-,N/A,,Mostly Cloudy,0,2012-09-11 16:00:00
11:30 PM,80.6,73.4,79,29.89,5.6,West,3.5,-,N/A,,Mostly Cloudy,260,2012-09-11 16:30:00